Time;durP1;ratioP1;P1;durP2;ratioP2;P2;SDS_P1;SDS_P2;PMS_P1;PMS_P2;Temp;Humidity;BMP_temperature;BMP_pressure;BME280_temperature;BME280_humidity;BME280_pressure;Samples;Min_cycle;Max_cycle;Signal;HPM_P1;HPM_P2
2022/06/04 00:00:25;;;;;;;;;;;22.90;56.20;;;;;;5053689;28;20272;-76
2022/06/04 00:02:51;;;;;;;;;;;22.90;56.20;;;;;;5054369;28;20043;-77
2022/06/04 00:05:22;;;;;;;;;;;22.90;56.30;;;;;;5054455;28;20347;-77
2022/06/04 00:07:47;;;;;;;;;;;22.90;56.20;;;;;;5055080;28;19951;-77
2022/06/04 00:15:44;;;;;;;;;;;22.90;56.40;;;;;;5054788;28;20043;-77
2022/06/04 00:18:09;;;;;;;;;;;22.90;56.30;;;;;;5038645;28;20356;-79
2022/06/04 00:20:35;;;;;;;;;;;22.90;56.20;;;;;;5037503;28;20004;-76
2022/06/04 00:23:02;;;;;;;;;;;22.90;56.20;;;;;;5054015;28;20368;-77
2022/06/04 00:25:27;;;;;;;;;;;22.90;56.30;;;;;;5053334;28;19917;-77
2022/06/04 00:27:56;;;;;;;;;;;22.90;56.40;;;;;;5054262;28;19955;-78
2022/06/04 00:30:21;;;;;;;;;;;22.90;56.70;;;;;;5035231;28;19908;-77
2022/06/04 00:32:46;;;;;;;;;;;22.90;56.70;;;;;;5053465;28;19916;-76
2022/06/04 00:35:12;;;;;;;;;;;22.90;56.60;;;;;;5054442;28;20007;-77
2022/06/04 00:37:38;;;;;;;;;;;22.80;55.70;;;;;;5036625;28;19915;-77
2022/06/04 00:40:04;;;;;;;;;;;22.70;55.60;;;;;;5053368;28;19909;-76
2022/06/04 00:42:30;;;;;;;;;;;22.70;55.60;;;;;;5035106;28;19916;-76
2022/06/04 00:45:14;;;;;;;;;;;22.60;55.50;;;;;;5052938;28;19916;-76
2022/06/04 00:47:41;;;;;;;;;;;22.60;55.40;;;;;;5052983;28;19909;-76
2022/06/04 00:50:08;;;;;;;;;;;22.60;55.60;;;;;;5052660;28;20343;-76
2022/06/04 00:52:34;;;;;;;;;;;22.50;55.40;;;;;;5052817;28;20000;-76
2022/06/04 00:54:59;;;;;;;;;;;22.50;55.40;;;;;;5052714;28;19962;-76
2022/06/04 00:57:43;;;;;;;;;;;22.50;55.40;;;;;;5052926;28;19916;-76
2022/06/04 01:00:12;;;;;;;;;;;22.50;55.50;;;;;;5053098;28;19920;-76
2022/06/04 01:02:50;;;;;;;;;;;22.50;55.70;;;;;;5035758;28;19917;-77
2022/06/04 01:05:21;;;;;;;;;;;22.40;55.70;;;;;;5053550;28;19916;-77
2022/06/04 01:07:55;;;;;;;;;;;22.40;55.70;;;;;;5053763;28;19963;-76
2022/06/04 01:10:21;;;;;;;;;;;22.40;55.70;;;;;;5035579;28;19909;-77
2022/06/04 01:12:49;;;;;;;;;;;22.40;55.80;;;;;;5053673;28;19916;-77
2022/06/04 01:15:29;;;;;;;;;;;22.30;55.80;;;;;;5034882;28;20355;-77
2022/06/04 01:18:13;;;;;;;;;;;22.30;55.60;;;;;;5052964;28;20003;-77
2022/06/04 01:20:43;;;;;;;;;;;22.30;55.90;;;;;;5052445;28;19913;-77
2022/06/04 01:23:36;;;;;;;;;;;22.30;55.80;;;;;;5052477;28;19917;-76
2022/06/04 01:26:20;;;;;;;;;;;22.30;55.80;;;;;;5034773;28;20380;-76
2022/06/04 01:29:12;;;;;;;;;;;22.30;55.90;;;;;;5052095;28;20296;-76
2022/06/04 01:31:45;;;;;;;;;;;22.20;55.80;;;;;;5047716;28;19919;-76
2022/06/04 01:34:12;;;;;;;;;;;22.20;55.90;;;;;;5060422;28;19913;-76
2022/06/04 01:36:47;;;;;;;;;;;22.20;55.90;;;;;;5060696;28;19919;-76
2022/06/04 01:39:19;;;;;;;;;;;22.20;55.80;;;;;;5043090;28;19943;-76
2022/06/04 01:41:50;;;;;;;;;;;22.20;56.10;;;;;;5033994;28;19917;-76
2022/06/04 01:44:19;;;;;;;;;;;22.20;56.00;;;;;;5051762;28;20268;-76
2022/06/04 01:46:51;;;;;;;;;;;22.10;56.60;;;;;;5033940;28;19931;-76
2022/06/04 01:49:36;;;;;;;;;;;21.90;55.80;;;;;;5051466;28;19909;-75
2022/06/04 01:52:05;;;;;;;;;;;22.10;56.10;;;;;;5034137;28;19916;-76
2022/06/04 01:54:45;;;;;;;;;;;22.10;56.30;;;;;;5051475;28;19917;-76
2022/06/04 01:57:34;;;;;;;;;;;22.10;56.10;;;;;;5033728;28;19912;-76
2022/06/04 02:00:10;;;;;;;;;;;22.00;56.10;;;;;;5037748;28;19915;-76
2022/06/04 02:02:38;;;;;;;;;;;22.00;56.20;;;;;;5033589;28;19916;-76
2022/06/04 02:05:06;;;;;;;;;;;22.00;56.30;;;;;;5051279;28;19963;-76
2022/06/04 02:07:34;;;;;;;;;;;22.00;56.20;;;;;;5033876;28;20429;-76
2022/06/04 02:10:05;;;;;;;;;;;22.00;56.30;;;;;;5033151;28;19961;-76
2022/06/04 02:12:33;;;;;;;;;;;22.00;56.20;;;;;;5051298;28;19913;-76
2022/06/04 02:14:59;;;;;;;;;;;22.00;56.00;;;;;;5051322;28;19916;-76
2022/06/04 02:17:25;;;;;;;;;;;21.90;56.20;;;;;;5051290;28;19915;-76
2022/06/04 02:19:51;;;;;;;;;;;21.90;56.20;;;;;;5050932;28;20312;-76
2022/06/04 02:22:16;;;;;;;;;;;21.90;56.50;;;;;;5051208;28;20292;-76
2022/06/04 02:24:42;;;;;;;;;;;22.00;56.40;;;;;;5051067;28;19909;-77
2022/06/04 02:27:09;;;;;;;;;;;21.90;56.30;;;;;;5051239;28;20427;-76
2022/06/04 02:29:35;;;;;;;;;;;21.90;56.50;;;;;;5050859;28;19916;-77
2022/06/04 02:32:14;;;;;;;;;;;21.90;56.30;;;;;;5033281;28;19958;-76
2022/06/04 02:34:39;;;;;;;;;;;21.80;56.60;;;;;;5051029;28;20592;-76
2022/06/04 02:37:23;;;;;;;;;;;21.80;56.80;;;;;;5051093;28;20007;-77
2022/06/04 02:39:58;;;;;;;;;;;21.80;56.70;;;;;;5051113;28;20253;-76
2022/06/04 02:42:29;;;;;;;;;;;21.80;56.40;;;;;;5051141;28;20008;-76
2022/06/04 02:44:56;;;;;;;;;;;21.80;56.60;;;;;;5051390;28;19909;-77
2022/06/04 02:47:27;;;;;;;;;;;21.70;56.70;;;;;;5053070;28;19955;-77
2022/06/04 02:50:00;;;;;;;;;;;21.70;57.00;;;;;;5055253;28;20541;-76
2022/06/04 02:52:26;;;;;;;;;;;21.70;56.80;;;;;;5055697;28;20007;-76
2022/06/04 02:54:55;;;;;;;;;;;21.70;56.90;;;;;;5055002;28;20353;-77
2022/06/04 02:57:22;;;;;;;;;;;21.70;56.70;;;;;;5037338;28;20368;-77
2022/06/04 02:59:48;;;;;;;;;;;21.70;57.30;;;;;;5055713;28;19916;-77
2022/06/04 03:02:15;;;;;;;;;;;21.60;57.00;;;;;;5055517;28;20015;-77
2022/06/04 03:04:45;;;;;;;;;;;21.60;56.90;;;;;;5054583;28;19916;-76
2022/06/04 03:07:10;;;;;;;;;;;21.60;57.20;;;;;;5036969;28;20023;-76
2022/06/04 03:09:38;;;;;;;;;;;21.60;57.50;;;;;;5054499;28;19948;-76
2022/06/04 03:12:04;;;;;;;;;;;21.60;57.50;;;;;;5054833;28;19915;-76
2022/06/04 03:14:29;;;;;;;;;;;21.60;57.00;;;;;;5054545;28;19969;-76
2022/06/04 03:16:55;;;;;;;;;;;21.60;57.00;;;;;;5054657;28;19951;-76
2022/06/04 03:19:21;;;;;;;;;;;21.60;57.10;;;;;;5054183;28;19912;-76
2022/06/04 03:21:46;;;;;;;;;;;21.60;56.90;;;;;;5054649;28;19982;-76
2022/06/04 03:24:12;;;;;;;;;;;21.60;57.00;;;;;;5054406;28;20026;-76
2022/06/04 03:26:38;;;;;;;;;;;21.50;56.80;;;;;;5036535;28;19917;-76
2022/06/04 03:29:04;;;;;;;;;;;21.50;56.80;;;;;;5054057;28;19909;-76
2022/06/04 03:31:30;;;;;;;;;;;21.50;56.70;;;;;;5036487;28;19913;-76
2022/06/04 03:33:55;;;;;;;;;;;21.50;56.80;;;;;;5054245;28;20318;-76
2022/06/04 03:36:21;;;;;;;;;;;21.50;56.90;;;;;;5054316;28;19913;-76
2022/06/04 03:38:49;;;;;;;;;;;21.50;56.90;;;;;;5053945;28;19915;-76
2022/06/04 03:41:15;;;;;;;;;;;21.50;56.90;;;;;;5053986;28;19916;-76
2022/06/04 03:43:41;;;;;;;;;;;21.50;57.00;;;;;;5054052;28;19909;-76
2022/06/04 03:46:07;;;;;;;;;;;21.50;57.00;;;;;;5036198;28;20379;-76
2022/06/04 03:48:34;;;;;;;;;;;21.50;57.10;;;;;;5053785;28;19909;-76
2022/06/04 03:51:00;;;;;;;;;;;21.50;57.10;;;;;;5054072;28;19913;-75
2022/06/04 03:53:26;;;;;;;;;;;21.50;57.60;;;;;;5054110;28;19915;-77
2022/06/04 03:55:51;;;;;;;;;;;21.50;57.60;;;;;;5053995;28;19999;-76
2022/06/04 03:58:17;;;;;;;;;;;21.50;57.30;;;;;;5053357;28;19912;-76
2022/06/04 04:00:44;;;;;;;;;;;21.50;57.20;;;;;;5053396;28;19963;-77
2022/06/04 04:03:12;;;;;;;;;;;21.50;57.20;;;;;;5053931;28;20300;-76
2022/06/04 04:05:40;;;;;;;;;;;21.50;57.20;;;;;;5035721;28;19928;-75
2022/06/04 04:08:07;;;;;;;;;;;21.50;57.30;;;;;;5053802;28;19970;-75
2022/06/04 04:10:33;;;;;;;;;;;21.50;57.30;;;;;;5053335;28;19909;-75
2022/06/04 04:12:59;;;;;;;;;;;21.50;57.40;;;;;;5053586;28;20318;-76
2022/06/04 04:15:25;;;;;;;;;;;21.70;57.70;;;;;;5035583;28;19905;-76
2022/06/04 04:17:50;;;;;;;;;;;21.60;57.60;;;;;;5035612;28;20218;-76
2022/06/04 04:20:18;;;;;;;;;;;21.60;57.80;;;;;;5053153;28;19951;-76
2022/06/04 04:22:44;;;;;;;;;;;21.60;57.70;;;;;;5053455;28;19912;-76
2022/06/04 04:25:10;;;;;;;;;;;21.80;57.80;;;;;;5035381;28;19916;-76
2022/06/04 04:27:36;;;;;;;;;;;21.60;57.60;;;;;;5053306;28;20431;-75
2022/06/04 04:30:03;;;;;;;;;;;21.70;58.00;;;;;;5053041;28;19999;-76
2022/06/04 04:32:28;;;;;;;;;;;21.70;58.10;;;;;;5053319;28;19913;-76
2022/06/04 04:34:54;;;;;;;;;;;21.70;58.30;;;;;;5053080;28;19908;-76
2022/06/04 04:37:19;;;;;;;;;;;21.70;58.40;;;;;;5053229;28;19916;-76
2022/06/04 04:39:45;;;;;;;;;;;21.70;58.40;;;;;;5052802;28;20444;-76
2022/06/04 04:42:10;;;;;;;;;;;21.70;58.40;;;;;;5035135;28;19921;-76
2022/06/04 04:44:36;;;;;;;;;;;21.80;58.50;;;;;;5052936;28;20347;-76
2022/06/04 04:47:01;;;;;;;;;;;21.80;58.40;;;;;;5053021;28;19909;-76
2022/06/04 04:49:27;;;;;;;;;;;21.80;58.50;;;;;;5052605;28;19920;-76
2022/06/04 04:51:53;;;;;;;;;;;21.80;58.50;;;;;;5052840;28;19909;-76
2022/06/04 04:54:18;;;;;;;;;;;21.70;58.30;;;;;;5052775;28;19916;-76
2022/06/04 04:56:44;;;;;;;;;;;21.80;58.30;;;;;;5034897;28;19908;-76
2022/06/04 04:59:10;;;;;;;;;;;21.80;58.30;;;;;;5052348;28;19909;-76
2022/06/04 05:01:35;;;;;;;;;;;21.80;58.50;;;;;;5052709;28;19912;-76
2022/06/04 05:04:01;;;;;;;;;;;21.80;58.60;;;;;;5052371;28;19909;-76
2022/06/04 05:06:26;;;;;;;;;;;21.80;59.00;;;;;;5052634;28;19923;-76
2022/06/04 05:08:55;;;;;;;;;;;21.80;58.50;;;;;;5034505;28;19916;-76
2022/06/04 05:11:27;;;;;;;;;;;21.90;58.60;;;;;;5052333;28;20281;-76
2022/06/04 05:13:52;;;;;;;;;;;21.80;58.50;;;;;;5052370;28;19956;-76
2022/06/04 05:16:19;;;;;;;;;;;21.80;58.50;;;;;;5052174;28;20438;-76
2022/06/04 05:18:45;;;;;;;;;;;21.90;58.30;;;;;;5052089;28;20196;-76
2022/06/04 05:21:17;;;;;;;;;;;21.80;59.00;;;;;;5052156;28;19963;-76
2022/06/04 05:23:42;;;;;;;;;;;21.80;59.00;;;;;;5052238;28;19909;-76
2022/06/04 05:26:08;;;;;;;;;;;21.80;59.10;;;;;;5052276;28;19931;-76
2022/06/04 05:28:33;;;;;;;;;;;21.80;59.40;;;;;;5051849;28;19954;-76
2022/06/04 05:30:58;;;;;;;;;;;21.80;59.20;;;;;;5052032;28;20002;-76
2022/06/04 05:33:24;;;;;;;;;;;21.80;59.70;;;;;;5052879;28;19912;-77
2022/06/04 05:35:49;;;;;;;;;;;21.80;59.10;;;;;;5034772;28;20357;-76
2022/06/04 05:38:15;;;;;;;;;;;22.00;59.30;;;;;;5051817;28;20270;-76
2022/06/04 05:40:41;;;;;;;;;;;21.80;59.20;;;;;;5051596;28;19963;-76
2022/06/04 05:43:06;;;;;;;;;;;21.80;59.30;;;;;;5052157;28;20261;-77
2022/06/04 05:45:31;;;;;;;;;;;21.70;59.40;;;;;;5053182;28;19913;-77
2022/06/04 05:47:57;;;;;;;;;;;21.70;59.10;;;;;;5053323;28;20360;-77
2022/06/04 05:50:22;;;;;;;;;;;21.70;59.00;;;;;;5034426;28;19916;-77
2022/06/04 05:52:48;;;;;;;;;;;21.70;59.10;;;;;;5051824;28;19912;-77
2022/06/04 05:55:13;;;;;;;;;;;21.70;59.00;;;;;;5051723;28;19920;-77
2022/06/04 05:57:39;;;;;;;;;;;21.60;58.90;;;;;;5033811;28;20021;-77
2022/06/04 06:00:08;;;;;;;;;;;21.60;59.50;;;;;;5051419;28;19912;-77
2022/06/04 06:02:34;;;;;;;;;;;21.60;59.60;;;;;;5051656;28;19913;-77
2022/06/04 06:04:59;;;;;;;;;;;21.60;59.60;;;;;;5038402;28;20284;-76
2022/06/04 06:07:24;;;;;;;;;;;21.60;60.00;;;;;;5056533;28;19917;-77
2022/06/04 06:09:50;;;;;;;;;;;21.60;59.60;;;;;;5054742;28;20380;-76
2022/06/04 06:12:15;;;;;;;;;;;21.70;59.70;;;;;;5051357;28;19909;-77
2022/06/04 06:14:41;;;;;;;;;;;21.70;60.60;;;;;;5051149;28;20276;-76
2022/06/04 06:17:06;;;;;;;;;;;21.70;59.70;;;;;;5051407;28;19995;-76
2022/06/04 06:19:32;;;;;;;;;;;21.70;59.60;;;;;;5050893;28;19920;-76
2022/06/04 06:21:58;;;;;;;;;;;21.70;60.00;;;;;;5050757;28;19991;-76
2022/06/04 06:24:23;;;;;;;;;;;21.70;60.60;;;;;;5033283;28;19924;-76
2022/06/04 06:26:52;;;;;;;;;;;21.70;60.00;;;;;;5051182;28;20340;-76
2022/06/04 06:29:18;;;;;;;;;;;21.70;59.80;;;;;;5050854;28;19920;-76
2022/06/04 06:31:43;;;;;;;;;;;21.70;60.00;;;;;;5033277;28;19909;-77
2022/06/04 06:34:09;;;;;;;;;;;21.70;59.80;;;;;;5050947;28;19999;-76
2022/06/04 06:36:34;;;;;;;;;;;21.70;60.40;;;;;;5051121;28;20015;-76
2022/06/04 06:39:00;;;;;;;;;;;21.70;59.80;;;;;;5050725;28;20050;-76
2022/06/04 06:41:26;;;;;;;;;;;21.70;59.90;;;;;;5051035;28;20462;-76
2022/06/04 06:43:51;;;;;;;;;;;21.70;60.00;;;;;;5050954;28;19994;-76
2022/06/04 06:46:17;;;;;;;;;;;21.70;59.90;;;;;;5050835;28;19913;-76
2022/06/04 06:48:43;;;;;;;;;;;21.80;59.90;;;;;;5032777;28;19916;-76
2022/06/04 06:51:10;;;;;;;;;;;21.80;60.00;;;;;;5050897;28;19960;-76
2022/06/04 06:53:35;;;;;;;;;;;21.80;60.20;;;;;;5050746;28;19920;-76
2022/06/04 06:56:14;;;;;;;;;;;21.80;60.50;;;;;;5050965;28;20331;-76
2022/06/04 06:58:40;;;;;;;;;;;21.90;60.60;;;;;;5032682;28;19912;-76
2022/06/04 07:01:06;;;;;;;;;;;21.90;60.40;;;;;;5050955;28;20280;-76
2022/06/04 07:03:33;;;;;;;;;;;21.80;62.20;;;;;;5050648;28;19916;-75
2022/06/04 07:05:59;;;;;;;;;;;21.70;62.90;;;;;;5050652;28;19923;-77
2022/06/04 07:08:25;;;;;;;;;;;21.60;63.30;;;;;;5050718;28;19996;-76
2022/06/04 07:10:51;;;;;;;;;;;21.70;62.70;;;;;;5032980;28;19959;-77
2022/06/04 07:13:16;;;;;;;;;;;21.90;62.20;;;;;;5050743;28;19967;-76
2022/06/04 07:15:43;;;;;;;;;;;22.00;61.40;;;;;;5050573;28;19971;-76
2022/06/04 07:18:13;;;;;;;;;;;22.10;61.60;;;;;;5050969;28;20487;-76
2022/06/04 07:20:38;;;;;;;;;;;21.90;61.20;;;;;;5049303;28;19908;-76
2022/06/04 07:23:04;;;;;;;;;;;22.20;62.20;;;;;;5050903;28;19982;-77
2022/06/04 07:25:30;;;;;;;;;;;22.20;62.70;;;;;;5050588;28;19992;-76
2022/06/04 07:27:55;;;;;;;;;;;22.20;61.40;;;;;;5050954;28;19966;-77
2022/06/04 07:30:20;;;;;;;;;;;22.10;61.50;;;;;;5050334;28;20356;-77
2022/06/04 07:32:46;;;;;;;;;;;22.10;62.20;;;;;;5051084;28;19908;-76
2022/06/04 07:35:11;;;;;;;;;;;22.10;61.70;;;;;;5036403;28;20383;-77
2022/06/04 07:37:37;;;;;;;;;;;22.20;62.30;;;;;;5036413;28;19967;-76
2022/06/04 07:40:03;;;;;;;;;;;22.20;61.90;;;;;;5054205;28;19962;-77
2022/06/04 07:42:28;;;;;;;;;;;22.20;62.10;;;;;;5054187;28;19916;-76
2022/06/04 07:44:55;;;;;;;;;;;22.30;62.50;;;;;;5054000;28;19916;-76
2022/06/04 07:47:21;;;;;;;;;;;22.30;60.00;;;;;;5054145;28;19916;-75
2022/06/04 07:49:46;;;;;;;;;;;22.50;59.00;;;;;;5035720;28;19908;-75
2022/06/04 07:52:12;;;;;;;;;;;22.60;58.40;;;;;;5054058;28;19909;-76
2022/06/04 07:54:39;;;;;;;;;;;23.00;58.80;;;;;;5053890;28;19916;-77
2022/06/04 07:57:04;;;;;;;;;;;23.20;59.10;;;;;;5036116;28;19909;-76
2022/06/04 07:59:30;;;;;;;;;;;23.70;58.00;;;;;;5053571;28;19915;-76
2022/06/04 08:01:55;;;;;;;;;;;24.00;57.30;;;;;;5053733;28;19959;-77
2022/06/04 08:04:21;;;;;;;;;;;24.00;57.50;;;;;;5053868;28;20380;-78
2022/06/04 08:06:46;;;;;;;;;;;23.60;59.30;;;;;;5053507;28;19913;-77
2022/06/04 08:09:12;;;;;;;;;;;23.50;59.90;;;;;;5053475;28;20432;-77
2022/06/04 08:11:38;;;;;;;;;;;23.20;59.60;;;;;;5053194;28;19908;-77
2022/06/04 08:14:03;;;;;;;;;;;23.20;59.80;;;;;;5034890;28;20357;-78
2022/06/04 08:16:29;;;;;;;;;;;23.60;58.90;;;;;;5053303;28;20360;-78
2022/06/04 08:18:54;;;;;;;;;;;24.30;57.60;;;;;;5052529;28;19983;-78
2022/06/04 08:21:20;;;;;;;;;;;24.70;56.40;;;;;;5052841;28;19951;-78
2022/06/04 08:23:46;;;;;;;;;;;24.70;56.30;;;;;;5035019;28;19909;-78
2022/06/04 08:26:12;;;;;;;;;;;24.80;55.90;;;;;;5053140;28;19913;-78
2022/06/04 08:28:37;;;;;;;;;;;25.20;55.10;;;;;;5053471;28;20361;-78
2022/06/04 08:31:05;;;;;;;;;;;25.50;53.80;;;;;;5053776;28;19908;-78
2022/06/04 08:33:30;;;;;;;;;;;26.30;51.60;;;;;;5053320;28;19913;-77
2022/06/04 08:35:56;;;;;;;;;;;26.70;49.70;;;;;;5053240;28;20396;-77
2022/06/04 08:38:22;;;;;;;;;;;26.80;48.70;;;;;;5035063;28;19920;-77
2022/06/04 08:40:52;;;;;;;;;;;26.30;50.90;;;;;;5053225;28;20054;-77
2022/06/04 08:43:31;;;;;;;;;;;26.60;50.40;;;;;;5053262;28;19913;-77
2022/06/04 08:45:58;;;;;;;;;;;26.40;51.90;;;;;;5052787;28;19913;-77
2022/06/04 08:48:31;;;;;;;;;;;26.00;54.10;;;;;;5034965;28;19962;-76
2022/06/04 08:50:56;;;;;;;;;;;25.60;54.60;;;;;;5052982;28;20373;-76
2022/06/04 08:53:25;;;;;;;;;;;25.60;55.00;;;;;;5052960;28;19917;-76
2022/06/04 08:58:48;;;;;;;;;;;26.70;49.80;;;;;;5052773;28;19959;-77
2022/06/04 09:01:14;;;;;;;;;;;26.90;49.30;;;;;;5052828;28;19909;-77
2022/06/04 09:03:53;;;;;;;;;;;26.90;48.80;;;;;;5035168;28;19913;-77
2022/06/04 09:06:36;;;;;;;;;;;26.40;51.50;;;;;;5035294;28;19921;-78
2022/06/04 09:09:24;;;;;;;;;;;25.90;52.80;;;;;;5053274;28;19908;-78
2022/06/04 09:12:03;;;;;;;;;;;25.80;54.40;;;;;;5006866;28;19920;-78
2022/06/04 09:14:36;;;;;;;;;;;26.50;51.30;;;;;;5053835;28;20573;-78
2022/06/04 09:17:03;;;;;;;;;;;26.80;48.50;;;;;;5035460;28;19909;-78
2022/06/04 09:19:32;;;;;;;;;;;26.90;47.70;;;;;;5052798;28;20022;-76
2022/06/04 09:21:58;;;;;;;;;;;26.90;47.50;;;;;;5052459;28;19913;-76
2022/06/04 09:24:24;;;;;;;;;;;27.00;48.30;;;;;;5052445;28;20039;-76
2022/06/04 09:26:52;;;;;;;;;;;26.80;49.20;;;;;;5034594;28;19966;-77
2022/06/04 09:29:39;;;;;;;;;;;26.90;48.10;;;;;;5051923;28;19919;-77
2022/06/04 09:32:07;;;;;;;;;;;27.00;47.80;;;;;;5052391;28;20276;-77
2022/06/04 09:34:36;;;;;;;;;;;26.70;48.50;;;;;;5051987;28;19932;-77
2022/06/04 09:37:02;;;;;;;;;;;26.40;49.50;;;;;;5052319;28;19917;-76
2022/06/04 09:39:29;;;;;;;;;;;26.10;50.30;;;;;;5051983;28;19908;-77
2022/06/04 09:41:56;;;;;;;;;;;25.70;51.60;;;;;;5051909;28;19920;-78
2022/06/04 09:44:22;;;;;;;;;;;25.40;52.00;;;;;;5051732;28;19909;-76
2022/06/04 09:46:51;;;;;;;;;;;25.30;52.40;;;;;;5033983;28;19916;-76
2022/06/04 09:49:36;;;;;;;;;;;25.20;52.80;;;;;;5051642;28;19909;-75
2022/06/04 09:52:20;;;;;;;;;;;25.10;52.30;;;;;;5051954;28;20331;-75
2022/06/04 09:54:51;;;;;;;;;;;25.10;53.10;;;;;;5051530;28;20352;-75
2022/06/04 09:57:26;;;;;;;;;;;25.00;56.00;;;;;;5050861;28;19912;-75
2022/06/04 09:59:53;;;;;;;;;;;24.90;54.70;;;;;;5033387;28;19917;-75
2022/06/04 10:02:19;;;;;;;;;;;24.80;54.90;;;;;;5051521;28;19944;-75
2022/06/04 10:04:47;;;;;;;;;;;24.80;54.50;;;;;;5033422;28;20002;-75
2022/06/04 10:07:17;;;;;;;;;;;24.80;54.40;;;;;;5051555;28;19912;-75
2022/06/04 10:09:56;;;;;;;;;;;24.90;54.40;;;;;;5033306;28;20018;-75
2022/06/04 10:13:42;;;;;;;;;;;25.00;55.30;;;;;;5051477;28;19919;-75
2022/06/04 10:15:36;;;;;;;;;;;24.90;53.70;;;;;;5051157;28;19915;-75
2022/06/04 10:18:20;;;;;;;;;;;24.90;55.00;;;;;;5046580;28;19909;-75
2022/06/04 10:20:52;;;;;;;;;;;24.90;54.60;;;;;;5033190;28;19908;-75
2022/06/04 10:23:18;;;;;;;;;;;24.90;55.70;;;;;;5033156;28;20288;-75
2022/06/04 10:25:49;;;;;;;;;;;24.80;54.40;;;;;;5051159;28;20376;-76
2022/06/04 10:28:21;;;;;;;;;;;24.80;54.00;;;;;;5051599;28;19919;-75
2022/06/04 10:30:53;;;;;;;;;;;24.70;54.20;;;;;;5051357;28;19908;-75
2022/06/04 10:33:27;;;;;;;;;;;24.70;54.20;;;;;;5051355;28;20273;-75
2022/06/04 10:35:56;;;;;;;;;;;24.60;53.80;;;;;;5033123;28;19943;-75
2022/06/04 10:38:34;;;;;;;;;;;24.60;56.00;;;;;;5050974;28;19912;-75
2022/06/04 10:41:02;;;;;;;;;;;24.60;53.80;;;;;;5051059;28;19919;-75
2022/06/04 10:43:35;;;;;;;;;;;24.70;55.10;;;;;;5051001;28;19916;-75
2022/06/04 10:46:01;;;;;;;;;;;24.70;54.20;;;;;;5051030;28;19913;-75
2022/06/04 10:48:48;;;;;;;;;;;24.60;53.70;;;;;;5032885;28;19913;-75
2022/06/04 10:51:25;;;;;;;;;;;24.70;53.80;;;;;;5051011;28;19948;-75
2022/06/04 10:54:06;;;;;;;;;;;24.60;53.30;;;;;;5050890;28;19909;-75
2022/06/04 10:56:46;;;;;;;;;;;24.70;53.80;;;;;;5033006;28;19936;-75
2022/06/04 10:59:32;;;;;;;;;;;24.60;53.80;;;;;;5050495;28;19956;-75
2022/06/04 11:01:58;;;;;;;;;;;24.70;53.60;;;;;;5050071;28;19919;-75
2022/06/04 11:04:33;;;;;;;;;;;24.70;53.50;;;;;;5050602;28;19912;-75
2022/06/04 11:07:25;;;;;;;;;;;24.70;54.60;;;;;;5050797;28;19913;-75
2022/06/04 11:09:51;;;;;;;;;;;24.60;54.40;;;;;;5015920;28;19920;-75
2022/06/04 11:12:30;;;;;;;;;;;24.70;55.00;;;;;;5036915;28;19915;-75
2022/06/04 11:14:59;;;;;;;;;;;24.70;53.70;;;;;;5054755;28;19913;-76
2022/06/04 11:17:32;;;;;;;;;;;24.70;53.60;;;;;;5054823;28;19908;-75
2022/06/04 11:20:03;;;;;;;;;;;24.60;53.60;;;;;;5054517;28;19909;-75
2022/06/04 11:22:35;;;;;;;;;;;24.60;54.20;;;;;;5054640;28;20291;-75
2022/06/04 11:25:09;;;;;;;;;;;24.60;53.70;;;;;;5054458;28;19995;-76
2022/06/04 11:27:41;;;;;;;;;;;24.60;53.50;;;;;;5054500;28;20323;-76
2022/06/04 11:30:13;;;;;;;;;;;24.50;53.50;;;;;;5036284;28;20439;-75
2022/06/04 11:32:41;;;;;;;;;;;24.50;55.40;;;;;;5054545;28;20284;-75
2022/06/04 11:35:12;;;;;;;;;;;24.60;54.20;;;;;;5036348;28;19909;-75
2022/06/04 11:37:56;;;;;;;;;;;24.80;53.80;;;;;;5054384;28;19999;-76
2022/06/04 11:40:40;;;;;;;;;;;24.80;53.60;;;;;;5054026;28;19916;-77
2022/06/04 11:43:24;;;;;;;;;;;24.80;53.50;;;;;;5054959;28;19917;-76
2022/06/04 11:46:02;;;;;;;;;;;24.70;53.50;;;;;;5036203;28;19996;-76
2022/06/04 11:49:06;;;;;;;;;;;24.70;53.60;;;;;;5053901;28;19920;-76
2022/06/04 11:51:43;;;;;;;;;;;24.80;54.80;;;;;;4953662;29;19949;-76
2022/06/04 11:54:27;;;;;;;;;;;24.90;54.30;;;;;;4954111;29;20338;-75
2022/06/04 11:57:03;;;;;;;;;;;24.90;54.00;;;;;;5020837;28;19913;-76
2022/06/04 11:59:47;;;;;;;;;;;25.00;53.70;;;;;;5053678;28;19908;-76
2022/06/04 12:02:18;;;;;;;;;;;25.00;53.50;;;;;;5053895;28;20372;-77
2022/06/04 12:04:47;;;;;;;;;;;25.00;53.50;;;;;;5053631;28;20375;-76
2022/06/04 12:07:18;;;;;;;;;;;25.00;53.70;;;;;;5053725;28;20396;-77
2022/06/04 12:09:50;;;;;;;;;;;25.00;53.50;;;;;;5035456;28;20292;-77
2022/06/04 12:12:22;;;;;;;;;;;25.00;53.50;;;;;;5053767;28;19909;-76
2022/06/04 12:14:59;;;;;;;;;;;25.00;53.40;;;;;;5053396;28;19936;-77
2022/06/04 12:17:46;;;;;;;;;;;25.10;52.90;;;;;;5053647;28;19908;-77
2022/06/04 12:26:22;;;;;;;;;;;25.10;53.00;;;;;;5053476;28;19915;-77
2022/06/04 12:28:48;;;;;;;;;;;25.10;53.00;;;;;;5053174;28;19915;-77
2022/06/04 12:31:24;;;;;;;;;;;25.10;53.00;;;;;;5053315;28;20276;-77
2022/06/04 12:33:51;;;;;;;;;;;25.10;52.80;;;;;;5053159;28;19932;-77
2022/06/04 12:36:25;;;;;;;;;;;25.10;52.70;;;;;;5035278;28;19916;-77
2022/06/04 12:38:57;;;;;;;;;;;25.20;52.70;;;;;;5052804;28;20007;-77
2022/06/04 12:41:22;;;;;;;;;;;25.20;52.80;;;;;;5053173;28;19912;-77
2022/06/04 12:43:55;;;;;;;;;;;25.10;52.70;;;;;;5035236;28;20070;-77
2022/06/04 12:46:24;;;;;;;;;;;25.00;53.40;;;;;;5053008;28;19999;-77
2022/06/04 12:48:52;;;;;;;;;;;24.90;53.40;;;;;;5034773;28;19913;-77
2022/06/04 12:51:36;;;;;;;;;;;24.80;54.30;;;;;;5052811;28;19912;-77
2022/06/04 12:54:17;;;;;;;;;;;24.80;53.70;;;;;;5052721;28;19919;-77
2022/06/04 12:56:43;;;;;;;;;;;24.80;53.40;;;;;;5052828;28;19908;-77
2022/06/04 12:59:27;;;;;;;;;;;24.70;53.50;;;;;;5052427;28;19916;-76
2022/06/04 13:01:52;;;;;;;;;;;24.70;53.60;;;;;;5052665;28;19971;-77
2022/06/04 13:04:20;;;;;;;;;;;24.70;54.10;;;;;;5052396;28;19921;-78
2022/06/04 13:06:51;;;;;;;;;;;24.70;53.60;;;;;;5052824;28;20273;-77
2022/06/04 13:09:35;;;;;;;;;;;24.60;53.70;;;;;;5051439;28;19909;-77
2022/06/04 13:12:07;;;;;;;;;;;24.60;53.70;;;;;;5051528;28;19981;-77
2022/06/04 13:14:42;;;;;;;;;;;24.60;54.00;;;;;;5034031;28;20363;-78
2022/06/04 13:17:28;;;;;;;;;;;24.60;54.20;;;;;;5033767;28;19908;-77
2022/06/04 13:19:57;;;;;;;;;;;24.60;53.80;;;;;;5033758;28;19916;-78
2022/06/04 13:22:25;;;;;;;;;;;24.60;54.00;;;;;;5051556;28;19920;-78
2022/06/04 13:24:51;;;;;;;;;;;24.60;53.70;;;;;;5051223;28;19909;-78
2022/06/04 13:27:19;;;;;;;;;;;24.70;54.00;;;;;;5050582;28;19939;-77
2022/06/04 13:29:54;;;;;;;;;;;24.70;53.60;;;;;;5032913;28;19990;-78
2022/06/04 13:32:21;;;;;;;;;;;24.70;53.60;;;;;;5051035;28;19909;-77
2022/06/04 13:34:47;;;;;;;;;;;24.70;53.40;;;;;;5051002;28;19913;-77
2022/06/04 13:37:18;;;;;;;;;;;24.70;54.00;;;;;;5032433;28;20387;-77
2022/06/04 13:40:03;;;;;;;;;;;24.60;53.30;;;;;;5050764;28;19916;-77
2022/06/04 13:42:29;;;;;;;;;;;24.60;53.90;;;;;;5051670;28;19916;-78
2022/06/04 13:44:58;;;;;;;;;;;24.60;55.20;;;;;;5051146;28;19909;-77
2022/06/04 13:47:29;;;;;;;;;;;24.60;54.80;;;;;;5051652;28;20304;-79
2022/06/04 13:50:10;;;;;;;;;;;24.60;55.50;;;;;;5051798;28;19913;-78
2022/06/04 13:52:43;;;;;;;;;;;24.60;55.30;;;;;;5052539;28;19909;-79
2022/06/04 13:55:14;;;;;;;;;;;24.50;55.30;;;;;;5052703;28;19909;-76
2022/06/04 13:57:43;;;;;;;;;;;24.50;55.60;;;;;;5052076;28;19917;-77
2022/06/04 14:00:18;;;;;;;;;;;24.70;55.50;;;;;;5051468;28;20327;-76
2022/06/04 14:02:46;;;;;;;;;;;24.50;55.10;;;;;;5051643;28;19920;-77
2022/06/04 14:08:24;;;;;;;;;;;24.50;54.60;;;;;;5051588;28;19994;-76
2022/06/04 14:11:08;;;;;;;;;;;24.50;54.30;;;;;;5051187;28;20086;-78
2022/06/04 14:13:53;;;;;;;;;;;24.50;54.90;;;;;;5052865;28;19909;-76
2022/06/04 14:16:35;;;;;;;;;;;24.50;55.70;;;;;;5033345;28;19912;-77
2022/06/04 14:19:03;;;;;;;;;;;24.50;55.00;;;;;;5033134;28;20399;-77
2022/06/04 14:21:47;;;;;;;;;;;24.50;54.70;;;;;;5051388;28;19931;-77
2022/06/04 14:24:33;;;;;;;;;;;24.50;54.60;;;;;;5033252;28;19921;-77
2022/06/04 14:27:17;;;;;;;;;;;24.40;54.40;;;;;;5032422;28;19955;-76
2022/06/04 14:29:46;;;;;;;;;;;24.40;54.30;;;;;;5032951;28;19995;-77
2022/06/04 14:32:19;;;;;;;;;;;24.40;54.30;;;;;;5051157;28;19943;-77
2022/06/04 14:34:46;;;;;;;;;;;24.40;54.40;;;;;;5051005;28;19912;-77
2022/06/04 14:37:12;;;;;;;;;;;24.40;54.30;;;;;;5033504;28;20406;-76
2022/06/04 14:39:43;;;;;;;;;;;24.40;54.20;;;;;;5050797;28;20007;-76
2022/06/04 14:42:16;;;;;;;;;;;24.50;54.10;;;;;;5050959;28;19999;-76
2022/06/04 14:44:56;;;;;;;;;;;24.40;54.00;;;;;;5050762;28;19963;-77
2022/06/04 14:47:42;;;;;;;;;;;24.40;54.10;;;;;;5050946;28;19945;-77
2022/06/04 14:50:07;;;;;;;;;;;24.50;54.10;;;;;;5050764;28;19913;-76